createdAt,value
2023-04-11T00:01:20.520Z,20.85
2023-04-11T00:03:22.603Z,20.88
2023-04-11T00:05:24.343Z,20.85
2023-04-11T00:07:25.766Z,20.85
2023-04-11T00:09:27.053Z,20.83
2023-04-11T00:11:28.397Z,20.84
2023-04-11T00:13:29.695Z,20.84
2023-04-11T00:15:32.661Z,20.84
2023-04-11T00:17:34.015Z,20.86
2023-04-11T00:19:35.405Z,20.88
2023-04-11T00:21:40.177Z,20.87
2023-04-11T00:23:41.644Z,20.87
2023-04-11T00:25:42.992Z,20.86
2023-04-11T00:27:44.299Z,20.87
2023-04-11T00:29:45.705Z,20.85
2023-04-11T00:31:47.023Z,20.82
2023-04-11T00:33:48.345Z,20.81
2023-04-11T00:35:49.720Z,20.82
2023-04-11T00:37:56.049Z,20.84
2023-04-11T00:39:57.419Z,20.91
2023-04-11T00:41:58.751Z,20.92
2023-04-11T00:44:00.044Z,20.90
2023-04-11T00:46:01.372Z,20.95
2023-04-11T00:48:02.964Z,20.95
2023-04-11T00:50:04.373Z,20.98
2023-04-11T00:52:06.493Z,20.99
2023-04-11T00:54:10.285Z,21.04
2023-04-11T00:56:11.695Z,21.05
2023-04-11T00:58:13.043Z,21.03
2023-04-11T01:00:14.379Z,21.03
2023-04-11T01:02:15.731Z,21.02
2023-04-11T01:04:17.605Z,21.02
2023-04-11T01:06:18.941Z,21.01
2023-04-11T01:08:20.296Z,21.03
2023-04-11T01:10:22.159Z,21.02
2023-04-11T01:12:23.483Z,21.01
2023-04-11T01:14:24.776Z,21.04
2023-04-11T01:16:26.132Z,21.04
2023-04-11T01:18:27.764Z,21.05
2023-04-11T01:20:29.722Z,21.05
2023-04-11T01:22:31.755Z,21.04
2023-04-11T01:24:33.117Z,21.04
2023-04-11T01:26:34.484Z,21.03
2023-04-11T01:28:35.811Z,21.01
2023-04-11T01:30:37.135Z,20.98
2023-04-11T01:32:38.500Z,20.96
2023-04-11T01:34:39.876Z,20.95
2023-04-11T01:36:41.220Z,20.95
2023-04-11T01:38:42.585Z,20.95
2023-04-11T01:40:43.926Z,20.95
2023-04-11T01:42:45.307Z,20.95
2023-04-11T01:44:46.592Z,20.94
2023-04-11T01:46:47.900Z,20.93
2023-04-11T01:48:49.348Z,21.00
2023-04-11T01:50:51.992Z,21.00
2023-04-11T01:52:53.325Z,21.00
2023-04-11T01:54:54.688Z,20.97
2023-04-11T01:56:56.751Z,20.98
2023-04-11T01:58:59.206Z,20.96
2023-04-11T02:01:02.243Z,20.96
2023-04-11T02:03:03.686Z,20.96
2023-04-11T02:05:05.562Z,20.95
2023-04-11T02:07:07.300Z,20.98
2023-04-11T02:09:08.607Z,20.96
2023-04-11T02:11:11.152Z,21.00
2023-04-11T02:13:12.478Z,21.00
2023-04-11T02:15:13.784Z,21.02
2023-04-11T02:17:15.112Z,21.01
2023-04-11T02:19:16.438Z,21.04
2023-04-11T02:21:17.790Z,21.09
2023-04-11T02:23:19.079Z,21.09
2023-04-11T02:25:20.566Z,21.09
2023-04-11T02:27:22.392Z,21.10
2023-04-11T02:29:23.731Z,21.08
2023-04-11T02:31:25.334Z,21.07
2023-04-11T02:33:27.060Z,21.03
2023-04-11T02:35:28.385Z,20.98
2023-04-11T02:37:29.718Z,20.94
2023-04-11T02:39:31.526Z,20.91
2023-04-11T02:41:32.857Z,20.87
2023-04-11T02:43:34.254Z,20.85
2023-04-11T02:45:35.696Z,20.83
2023-04-11T02:47:37.038Z,20.84
2023-04-11T02:49:41.152Z,20.82
2023-04-11T02:51:42.447Z,20.84
2023-04-11T02:53:43.781Z,20.85
2023-04-11T02:55:45.124Z,20.85
2023-04-11T02:57:46.461Z,20.10
2023-04-11T02:59:47.815Z,20.90
2023-04-11T03:01:49.397Z,20.94
2023-04-11T03:03:50.895Z,20.98
2023-04-11T03:05:52.276Z,20.98
2023-04-11T03:07:53.630Z,20.98
2023-04-11T03:09:54.945Z,20.98
2023-04-11T03:11:56.844Z,21.00
2023-04-11T03:13:58.317Z,21.03
2023-04-11T03:15:59.673Z,21.04
2023-04-11T03:18:01.150Z,21.04
2023-04-11T03:20:02.589Z,21.04
2023-04-11T03:22:03.900Z,21.06
2023-04-11T03:24:05.342Z,21.08
2023-04-11T03:26:06.709Z,21.08
2023-04-11T03:28:08.073Z,21.10
2023-04-11T03:30:09.403Z,21.18
2023-04-11T03:32:10.726Z,21.20
2023-04-11T03:34:12.068Z,21.21
2023-04-11T03:36:13.421Z,21.21
2023-04-11T03:38:14.760Z,21.22
2023-04-11T03:40:16.058Z,21.20
2023-04-11T03:42:17.392Z,21.19
2023-04-11T03:44:18.720Z,21.19
2023-04-11T03:46:20.071Z,21.17
2023-04-11T03:48:21.416Z,21.16
2023-04-11T03:50:22.717Z,21.17
2023-04-11T03:52:24.068Z,21.15
2023-04-11T03:54:25.431Z,21.10
2023-04-11T03:56:26.716Z,21.08
2023-04-11T03:58:28.059Z,21.05
2023-04-11T04:00:29.418Z,21.01
2023-04-11T04:02:30.811Z,21.00
2023-04-11T04:04:32.480Z,20.98
2023-04-11T04:06:33.884Z,20.95
2023-04-11T04:08:35.485Z,20.96
2023-04-11T04:10:36.784Z,20.93
2023-04-11T04:12:38.133Z,20.88
2023-04-11T04:14:39.555Z,20.85
2023-04-11T04:16:40.906Z,20.83
2023-04-11T04:18:42.242Z,20.79
2023-04-11T04:20:43.592Z,20.78
2023-04-11T04:22:47.498Z,20.75
2023-04-11T04:24:49.009Z,20.75
2023-04-11T04:26:50.314Z,20.75
2023-04-11T04:28:54.035Z,20.72
2023-04-11T04:30:58.164Z,20.73
2023-04-11T04:33:00.027Z,20.74
2023-04-11T04:35:02.183Z,20.80
2023-04-11T04:37:03.487Z,20.84
2023-04-11T04:39:04.845Z,20.93
2023-04-11T04:41:06.191Z,21.00
2023-04-11T04:43:11.528Z,21.01
2023-04-11T04:45:12.899Z,21.04
2023-04-11T04:47:14.511Z,21.05
2023-04-11T04:49:16.170Z,21.11
2023-04-11T04:51:17.500Z,21.16
2023-04-11T04:53:18.831Z,21.20
2023-04-11T04:55:20.367Z,21.28
2023-04-11T04:57:21.910Z,21.32
2023-04-11T04:59:23.377Z,21.32
2023-04-11T05:01:26.879Z,21.32
2023-04-11T05:03:28.484Z,21.30
2023-04-11T05:05:30.041Z,21.28
2023-04-11T05:07:31.424Z,21.28
2023-04-11T05:09:32.738Z,21.25
2023-04-11T05:11:34.364Z,20.38
2023-04-11T05:13:35.716Z,21.21
2023-04-11T05:15:37.025Z,21.19
2023-04-11T05:17:38.694Z,21.18
2023-04-11T05:19:40.044Z,21.16
2023-04-11T05:21:41.395Z,21.17
2023-04-11T05:23:42.726Z,21.18
2023-04-11T05:25:44.024Z,21.17
2023-04-11T05:27:45.454Z,21.13
2023-04-11T05:29:46.754Z,21.09
2023-04-11T05:31:48.093Z,21.12
2023-04-11T05:33:49.480Z,21.01
2023-04-11T05:35:50.808Z,20.93
2023-04-11T05:37:52.168Z,20.94
2023-04-11T05:39:53.532Z,20.94
2023-04-11T05:41:54.838Z,20.92
2023-04-11T05:43:56.478Z,20.92
2023-04-11T05:45:58.169Z,20.92
2023-04-11T05:47:59.523Z,20.94
2023-04-11T05:50:00.909Z,20.93
2023-04-11T05:52:02.234Z,20.91
2023-04-11T05:54:03.632Z,20.91
2023-04-11T05:56:05.023Z,20.95
2023-04-11T05:58:06.415Z,20.97
2023-04-11T06:00:16.201Z,20.97
2023-04-11T06:02:17.730Z,20.97
2023-04-11T06:04:19.257Z,20.95
2023-04-11T06:06:20.668Z,20.94
2023-04-11T06:08:22.122Z,20.93
2023-04-11T06:10:23.458Z,20.98
2023-04-11T06:12:24.770Z,21.01
2023-04-11T06:14:26.165Z,21.04
2023-04-11T06:16:27.589Z,21.06
2023-04-11T06:18:28.996Z,21.08
2023-04-11T06:20:30.604Z,21.11
2023-04-11T06:22:31.964Z,21.11
2023-04-11T06:24:36.251Z,21.10
2023-04-11T06:26:37.560Z,21.13
2023-04-11T06:28:38.911Z,21.15
2023-04-11T06:30:40.222Z,21.18
2023-04-11T06:32:42.365Z,21.20
2023-04-11T06:34:43.739Z,21.20
2023-04-11T06:36:48.096Z,21.20
2023-04-11T06:38:49.402Z,21.20
2023-04-11T06:40:52.207Z,21.20
2023-04-11T06:42:53.616Z,21.21
2023-04-11T06:44:54.947Z,21.22
2023-04-11T06:46:56.741Z,21.22
2023-04-11T06:48:58.148Z,21.18
2023-04-11T06:50:59.492Z,21.15
2023-04-11T06:53:00.940Z,21.11
2023-04-11T06:55:02.278Z,21.10
2023-04-11T06:57:03.696Z,21.11
2023-04-11T06:59:04.987Z,21.09
2023-04-11T07:01:06.400Z,21.12
2023-04-11T07:03:07.881Z,21.18
2023-04-11T07:05:10.218Z,21.21
2023-04-11T07:07:11.639Z,21.24
2023-04-11T07:09:13.078Z,21.20
2023-04-11T07:11:14.387Z,21.17
2023-04-11T07:13:15.693Z,21.15
2023-04-11T07:15:17.021Z,21.15
2023-04-11T07:17:18.313Z,21.17
2023-04-11T07:19:19.640Z,21.17
2023-04-11T07:21:20.964Z,21.15
2023-04-11T07:23:23.688Z,21.18
2023-04-11T07:25:25.259Z,21.17
2023-04-11T07:27:26.603Z,21.16
2023-04-11T07:29:28.815Z,21.18
2023-04-11T07:31:30.925Z,21.18
2023-04-11T07:33:32.405Z,21.17
2023-04-11T07:35:34.650Z,21.17
2023-04-11T07:37:36.969Z,21.25
2023-04-11T07:39:38.320Z,21.25
2023-04-11T07:41:42.435Z,21.14
2023-04-11T07:43:43.778Z,21.04
2023-04-11T07:45:45.193Z,20.97
2023-04-11T07:47:46.692Z,20.92
2023-04-11T07:49:48.105Z,20.88
2023-04-11T07:51:49.417Z,20.87
2023-04-11T07:53:50.736Z,20.88
2023-04-11T07:55:52.046Z,20.88
2023-04-11T07:57:53.342Z,20.87
2023-04-11T07:59:54.723Z,20.88
2023-04-11T08:01:56.167Z,20.87
2023-04-11T08:03:58.277Z,20.88
2023-04-11T08:05:59.948Z,20.88
2023-04-11T08:08:01.479Z,20.89
2023-04-11T08:10:02.772Z,20.87
2023-04-11T08:12:04.089Z,20.87
2023-04-11T08:14:05.374Z,19.57
2023-04-11T08:16:06.761Z,19.15
2023-04-11T08:18:08.375Z,20.84
2023-04-11T08:20:09.816Z,21.64
2023-04-11T08:22:11.161Z,22.01
2023-04-11T08:24:12.468Z,22.26
2023-04-11T08:26:13.801Z,22.07
2023-04-11T08:28:15.320Z,22.28
2023-04-11T08:30:16.731Z,22.59
2023-04-11T08:32:18.174Z,22.44
2023-04-11T08:34:19.569Z,22.27
2023-04-11T08:36:21.342Z,22.56
2023-04-11T08:38:22.649Z,22.35
2023-04-11T08:40:25.193Z,22.83
2023-04-11T08:42:28.307Z,22.61
2023-04-11T08:44:29.615Z,22.91
2023-04-11T08:46:30.995Z,23.37
2023-04-11T08:48:32.959Z,23.31
2023-04-11T08:50:34.305Z,23.04
2023-04-11T08:52:35.684Z,23.52
2023-04-11T08:54:37.001Z,23.44
2023-04-11T08:56:38.294Z,23.52
2023-04-11T08:58:40.480Z,23.13
2023-04-11T09:00:43.285Z,23.16
2023-04-11T09:02:44.634Z,22.79
2023-04-11T09:04:47.564Z,22.84
2023-04-11T09:06:48.932Z,22.62
2023-04-11T09:08:50.390Z,22.76
2023-04-11T09:10:51.801Z,22.69
2023-04-11T09:12:53.244Z,22.66
2023-04-11T09:14:54.621Z,22.54
2023-04-11T09:16:56.090Z,22.44
2023-04-11T09:18:57.566Z,22.39
2023-04-11T09:20:59.084Z,22.42
2023-04-11T09:23:00.557Z,22.65
2023-04-11T09:25:01.860Z,22.75
2023-04-11T09:27:04.004Z,23.07
2023-04-11T09:29:05.530Z,22.27
2023-04-11T09:31:06.977Z,21.84
2023-04-11T09:33:08.346Z,22.46
2023-04-11T09:35:09.817Z,22.30
2023-04-11T09:37:11.170Z,22.13
2023-04-11T09:39:12.504Z,21.63
2023-04-11T09:41:13.837Z,21.92
2023-04-11T09:43:15.162Z,22.07
2023-04-11T09:45:17.004Z,21.61
2023-04-11T09:47:18.295Z,21.36
2023-04-11T09:49:19.624Z,21.23
2023-04-11T09:51:35.021Z,21.15
2023-04-11T09:53:37.436Z,21.09
2023-04-11T09:55:39.683Z,21.03
2023-04-11T09:57:40.988Z,21.00
2023-04-11T09:59:42.330Z,20.96
2023-04-11T10:01:43.704Z,20.95
2023-04-11T10:03:47.340Z,20.95
2023-04-11T10:05:49.991Z,20.95
2023-04-11T10:07:51.508Z,20.95
2023-04-11T10:09:53.457Z,20.98
2023-04-11T10:11:54.866Z,20.90
2023-04-11T10:13:58.019Z,20.93
2023-04-11T10:15:59.553Z,21.00
2023-04-11T10:18:02.284Z,21.03
2023-04-11T10:20:05.309Z,21.07
2023-04-11T10:22:06.664Z,21.11
2023-04-11T10:24:08.905Z,21.11
2023-04-11T10:26:10.696Z,21.09
2023-04-11T10:28:12.007Z,21.06
2023-04-11T10:30:13.371Z,21.03
2023-04-11T10:32:14.681Z,20.99
2023-04-11T10:34:16.081Z,20.98
2023-04-11T10:36:17.428Z,20.98
2023-04-11T10:38:21.415Z,21.00
2023-04-11T10:40:24.141Z,20.98
2023-04-11T10:42:25.691Z,20.97
2023-04-11T10:44:27.000Z,21.14
2023-04-11T10:46:28.415Z,21.20
2023-04-11T10:48:29.764Z,21.26
2023-04-11T10:50:31.563Z,21.26
2023-04-11T10:52:32.940Z,21.26
2023-04-11T10:54:34.270Z,21.27
2023-04-11T10:56:35.688Z,21.29
2023-04-11T10:58:37.369Z,21.27
2023-04-11T11:00:38.699Z,21.28
2023-04-11T11:02:40.331Z,21.31
2023-04-11T11:04:42.271Z,21.33
2023-04-11T11:06:51.094Z,21.33
2023-04-11T11:08:59.583Z,21.32
2023-04-11T11:11:01.662Z,21.34
2023-04-11T11:13:03.986Z,21.35
2023-04-11T11:15:05.280Z,21.36
2023-04-11T11:17:06.733Z,21.36
2023-04-11T11:19:09.936Z,21.40
2023-04-11T11:21:14.228Z,21.49
2023-04-11T11:23:21.848Z,21.59
2023-04-11T11:25:25.478Z,21.45
2023-04-11T11:27:26.806Z,21.33
2023-04-11T11:29:28.647Z,21.24
2023-04-11T11:31:29.968Z,21.19
2023-04-11T11:33:31.290Z,21.11
2023-04-11T11:35:32.616Z,21.10
2023-04-11T11:37:33.911Z,20.97
2023-04-11T11:39:35.422Z,20.93
2023-04-11T11:41:36.933Z,20.95
2023-04-11T11:43:38.225Z,20.96
2023-04-11T11:45:39.576Z,21.00
2023-04-11T11:47:41.616Z,21.00
2023-04-11T11:49:42.940Z,21.00
2023-04-11T11:51:44.273Z,20.96
2023-04-11T11:53:45.681Z,20.93
2023-04-11T11:55:47.107Z,20.95
2023-04-11T11:57:48.487Z,20.96
2023-04-11T11:59:49.788Z,20.94
2023-04-11T12:01:51.795Z,20.89
2023-04-11T12:03:53.724Z,20.85
2023-04-11T12:05:56.819Z,20.82
2023-04-11T12:08:00.253Z,20.78
2023-04-11T12:10:01.670Z,20.76
2023-04-11T12:12:03.212Z,20.78
2023-04-11T12:14:04.569Z,20.79
2023-04-11T12:16:05.980Z,20.83
2023-04-11T12:18:07.432Z,20.88
2023-04-11T12:20:08.737Z,20.92
2023-04-11T12:22:10.071Z,20.96
2023-04-11T12:24:11.444Z,21.01
2023-04-11T12:26:13.604Z,21.06
2023-04-11T12:28:15.009Z,21.11
2023-04-11T12:30:16.339Z,21.15
2023-04-11T12:32:20.503Z,21.19
2023-04-11T12:34:21.823Z,21.25
2023-04-11T12:36:23.210Z,21.29
2023-04-11T12:38:25.275Z,21.29
2023-04-11T12:40:26.740Z,21.31
2023-04-11T12:42:28.084Z,21.33
2023-04-11T12:44:29.379Z,21.35
2023-04-11T12:46:30.885Z,21.33
2023-04-11T12:48:32.795Z,21.35
2023-04-11T12:50:34.079Z,21.31
2023-04-11T12:52:35.481Z,21.27
2023-04-11T12:54:36.786Z,21.27
2023-04-11T12:56:38.383Z,21.22
2023-04-11T12:58:39.807Z,21.18
2023-04-11T13:00:41.147Z,21.15
2023-04-11T13:02:44.900Z,21.11
2023-04-11T13:04:46.767Z,21.06
2023-04-11T13:06:48.112Z,21.01
2023-04-11T13:08:49.442Z,20.95
2023-04-11T13:10:50.774Z,20.88
2023-04-11T13:12:53.329Z,20.84
2023-04-11T13:14:56.743Z,20.80
2023-04-11T13:16:58.103Z,20.77
2023-04-11T13:18:59.405Z,20.74
2023-04-11T13:21:00.990Z,20.74
2023-04-11T13:23:02.310Z,20.72
2023-04-11T13:25:03.660Z,20.70
2023-04-11T13:27:04.964Z,20.69
2023-04-11T13:29:06.726Z,20.68
2023-04-11T13:31:10.368Z,20.69
2023-04-11T13:33:11.880Z,19.87
2023-04-11T13:35:13.210Z,20.82
2023-04-11T13:37:14.591Z,20.89
2023-04-11T13:39:16.095Z,20.92
2023-04-11T13:41:17.429Z,20.98
2023-04-11T13:43:18.754Z,21.05
2023-04-11T13:45:20.090Z,21.11
2023-04-11T13:47:21.427Z,21.16
2023-04-11T13:49:22.750Z,21.18
2023-04-11T13:51:24.058Z,21.18
2023-04-11T13:53:25.365Z,21.19
2023-04-11T13:55:26.693Z,21.17
2023-04-11T13:57:28.625Z,21.19
2023-04-11T13:59:29.967Z,21.22
2023-04-11T14:01:31.691Z,21.24
2023-04-11T14:03:33.866Z,21.25
2023-04-11T14:05:35.701Z,21.30
2023-04-11T14:07:37.094Z,20.29
2023-04-11T14:09:38.430Z,21.30
2023-04-11T14:11:39.773Z,21.33
2023-04-11T14:13:41.212Z,21.34
2023-04-11T14:15:42.511Z,21.34
2023-04-11T14:17:44.134Z,21.31
2023-04-11T14:19:45.518Z,21.31
2023-04-11T14:21:46.933Z,21.26
2023-04-11T14:23:48.251Z,21.25
2023-04-11T14:25:49.671Z,21.24
2023-04-11T14:27:51.091Z,21.21
2023-04-11T14:29:52.381Z,21.18
2023-04-11T14:31:53.987Z,21.18
2023-04-11T14:33:55.540Z,21.15
2023-04-11T14:35:59.827Z,21.13
2023-04-11T14:38:02.164Z,21.11
2023-04-11T14:40:04.411Z,21.10
2023-04-11T14:42:06.238Z,21.10
2023-04-11T14:44:07.611Z,21.07
2023-04-11T14:46:08.979Z,21.04
2023-04-11T14:48:10.531Z,21.02
2023-04-11T14:50:11.956Z,20.99
2023-04-11T14:52:13.307Z,20.95
2023-04-11T14:54:14.603Z,20.94
2023-04-11T14:56:15.957Z,20.93
2023-04-11T14:58:17.315Z,20.91
2023-04-11T15:00:22.643Z,20.90
2023-04-11T15:02:29.044Z,20.88
2023-04-11T15:04:31.189Z,20.88
2023-04-11T15:06:35.526Z,20.86
2023-04-11T15:08:36.980Z,20.85
2023-04-11T15:10:38.349Z,20.84
2023-04-11T15:12:39.723Z,20.84
2023-04-11T15:14:41.056Z,20.84
2023-04-11T15:16:42.463Z,20.84
2023-04-11T15:18:43.773Z,20.84
2023-04-11T15:20:45.118Z,20.84
2023-04-11T15:22:46.626Z,20.82
2023-04-11T15:24:48.005Z,20.83
2023-04-11T15:26:52.397Z,20.81
2023-04-11T15:28:53.700Z,20.83
2023-04-11T15:30:55.654Z,20.83
2023-04-11T15:32:57.041Z,20.79
2023-04-11T15:34:58.417Z,20.76
2023-04-11T15:37:02.848Z,20.77
2023-04-11T15:39:05.055Z,20.78
2023-04-11T15:41:07.591Z,20.80
2023-04-11T15:43:09.104Z,20.81
2023-04-11T15:45:13.446Z,20.83
2023-04-11T15:47:14.743Z,20.85
2023-04-11T15:49:16.053Z,20.87
2023-04-11T15:51:17.349Z,20.86
2023-04-11T15:53:19.468Z,20.86
2023-04-11T15:55:21.300Z,20.89
2023-04-11T15:57:22.640Z,20.88
2023-04-11T15:59:27.043Z,20.90
2023-04-11T16:01:29.956Z,20.93
2023-04-11T16:03:32.387Z,20.92
2023-04-11T16:05:33.878Z,20.92
2023-04-11T16:07:35.331Z,20.94
2023-04-11T16:09:39.647Z,20.94
2023-04-11T16:11:41.198Z,20.96
2023-04-11T16:13:52.725Z,20.95
2023-04-11T16:15:54.036Z,20.94
2023-04-11T16:17:55.593Z,20.92
2023-04-11T16:19:56.992Z,20.93
2023-04-11T16:21:58.284Z,20.94
2023-04-11T16:23:59.700Z,20.93
2023-04-11T16:26:00.995Z,20.90
2023-04-11T16:28:02.303Z,20.89
2023-04-11T16:30:06.298Z,20.88
2023-04-11T16:32:07.798Z,20.85
2023-04-11T16:34:09.201Z,20.87
2023-04-11T16:36:13.342Z,20.88
2023-04-11T16:38:14.717Z,20.85
2023-04-11T16:40:16.019Z,20.84
2023-04-11T16:42:17.357Z,20.83
2023-04-11T16:44:21.661Z,20.82
2023-04-11T16:46:23.068Z,20.82
2023-04-11T16:48:24.584Z,20.80
2023-04-11T16:50:26.110Z,20.82
2023-04-11T16:52:27.454Z,20.82
2023-04-11T16:54:34.553Z,20.80
2023-04-11T16:56:35.884Z,20.79
2023-04-11T16:58:37.512Z,20.79
2023-04-11T17:00:38.822Z,20.78
2023-04-11T17:02:40.315Z,20.77
2023-04-11T17:04:41.935Z,20.77
2023-04-11T17:06:46.011Z,20.75
2023-04-11T17:08:47.351Z,20.74
2023-04-11T17:10:48.793Z,20.75
2023-04-11T17:12:50.210Z,20.74
2023-04-11T17:14:52.613Z,20.73
2023-04-11T17:16:53.993Z,20.74
2023-04-11T17:18:55.351Z,20.74
2023-04-11T17:20:56.653Z,20.73
2023-04-11T17:22:57.988Z,20.74
2023-04-11T17:24:59.986Z,20.72
2023-04-11T17:27:01.299Z,20.74
2023-04-11T17:29:02.658Z,20.75
2023-04-11T17:31:04.070Z,20.74
2023-04-11T17:33:05.490Z,20.75
2023-04-11T17:35:06.950Z,20.76
2023-04-11T17:37:11.698Z,20.74
2023-04-11T17:39:17.567Z,20.75
2023-04-11T17:41:18.914Z,20.75
2023-04-11T17:43:20.504Z,20.76
2023-04-11T17:45:22.397Z,20.77
2023-04-11T17:47:24.654Z,20.77
2023-04-11T17:49:27.291Z,20.78
2023-04-11T17:51:29.344Z,20.78
2023-04-11T17:53:30.982Z,20.78
2023-04-11T17:55:32.340Z,20.79
2023-04-11T17:57:34.016Z,20.80
2023-04-11T17:59:39.586Z,20.79
2023-04-11T18:01:42.215Z,20.79
2023-04-11T18:03:44.075Z,20.80
2023-04-11T18:05:45.645Z,20.81
2023-04-11T18:07:47.263Z,20.81
2023-04-11T18:09:48.567Z,20.81
2023-04-11T18:11:49.903Z,20.83
2023-04-11T18:13:51.284Z,20.82
2023-04-11T18:15:52.717Z,20.83
2023-04-11T18:17:54.331Z,20.81
2023-04-11T18:19:55.866Z,20.78
2023-04-11T18:21:57.524Z,20.74
2023-04-11T18:23:59.139Z,20.70
2023-04-11T18:26:00.645Z,20.64
2023-04-11T18:28:05.089Z,20.58
2023-04-11T18:30:12.631Z,20.51
2023-04-11T18:32:16.914Z,20.48
2023-04-11T18:34:18.274Z,20.46
2023-04-11T18:36:21.090Z,20.44
2023-04-11T18:38:25.695Z,20.47
2023-04-11T18:40:27.482Z,20.46
2023-04-11T18:42:29.188Z,20.50
2023-04-11T18:44:31.121Z,19.63
2023-04-11T18:46:34.270Z,20.57
2023-04-11T18:48:36.814Z,20.60
2023-04-11T18:50:39.070Z,20.65
2023-04-11T18:52:40.487Z,20.71
2023-04-11T18:54:41.795Z,20.75
2023-04-11T18:56:44.804Z,20.79
2023-04-11T18:58:51.683Z,20.84
2023-04-11T19:00:58.253Z,20.88
2023-04-11T19:03:00.016Z,20.93
2023-04-11T19:05:02.305Z,20.96
2023-04-11T19:07:04.568Z,21.02
2023-04-11T19:09:06.306Z,21.05
2023-04-11T19:11:07.676Z,21.08
2023-04-11T19:13:09.605Z,21.09
2023-04-11T19:15:10.998Z,21.10
2023-04-11T19:17:15.890Z,21.11
2023-04-11T19:19:17.294Z,21.10
2023-04-11T19:21:18.616Z,21.10
2023-04-11T19:23:25.836Z,21.05
2023-04-11T19:25:27.458Z,21.05
2023-04-11T19:27:28.793Z,21.03
2023-04-11T19:29:30.165Z,21.01
2023-04-11T19:31:32.562Z,20.98
2023-04-11T19:33:36.028Z,20.94
2023-04-11T19:35:37.602Z,20.91
2023-04-11T19:37:38.992Z,20.87
2023-04-11T19:39:40.313Z,20.83
2023-04-11T19:41:42.016Z,20.80
2023-04-11T19:43:43.422Z,20.77
2023-04-11T19:45:44.822Z,20.77
2023-04-11T19:47:48.525Z,20.76
2023-04-11T19:49:49.852Z,20.73
2023-04-11T19:51:51.167Z,20.72
2023-04-11T19:53:52.493Z,20.71
2023-04-11T19:55:55.540Z,20.67
2023-04-11T19:57:56.922Z,20.65
2023-04-11T19:59:58.640Z,20.65
2023-04-11T20:02:02.641Z,20.62
2023-04-11T20:04:04.101Z,20.63
2023-04-11T20:06:05.917Z,20.63
2023-04-11T20:08:08.017Z,20.63
2023-04-11T20:10:09.673Z,19.89
2023-04-11T20:12:11.184Z,20.64
2023-04-11T20:14:15.836Z,20.65
2023-04-11T20:16:21.410Z,20.66
2023-04-11T20:18:22.829Z,18.95
2023-04-11T20:20:28.055Z,20.73
2023-04-11T20:22:29.406Z,20.75
2023-04-11T20:24:30.745Z,20.78
2023-04-11T20:26:32.071Z,20.81
2023-04-11T20:28:33.544Z,20.86
2023-04-11T20:30:34.880Z,20.90
2023-04-11T20:32:36.304Z,20.96
2023-04-11T20:34:37.768Z,20.98
2023-04-11T20:36:39.176Z,21.00
2023-04-11T20:38:40.828Z,21.02
2023-04-11T20:40:42.147Z,21.04
2023-04-11T20:42:45.427Z,21.01
2023-04-11T20:44:47.398Z,20.98
2023-04-11T20:46:48.708Z,20.97
2023-04-11T20:48:53.064Z,20.96
2023-04-11T20:50:58.622Z,20.91
2023-04-11T20:52:59.916Z,20.88
2023-04-11T20:55:02.463Z,20.85
2023-04-11T20:57:04.003Z,20.83
2023-04-11T20:59:07.133Z,20.79
2023-04-11T21:01:08.467Z,20.78
2023-04-11T21:03:09.910Z,20.77
2023-04-11T21:05:11.959Z,20.73
2023-04-11T21:07:13.311Z,20.71
2023-04-11T21:09:15.293Z,20.70
2023-04-11T21:11:16.594Z,20.67
2023-04-11T21:13:17.891Z,20.66
2023-04-11T21:15:19.894Z,20.66
2023-04-11T21:17:21.678Z,20.69
2023-04-11T21:19:23.019Z,20.67
2023-04-11T21:21:24.343Z,20.62
2023-04-11T21:23:25.810Z,18.55
2023-04-11T21:25:27.163Z,17.52
2023-04-11T21:27:28.491Z,19.41
2023-04-11T21:29:29.782Z,21.15
2023-04-11T21:31:31.130Z,21.77
2023-04-11T21:33:32.423Z,22.29
2023-04-11T21:35:33.973Z,22.56
2023-04-11T21:37:35.463Z,22.61
2023-04-11T21:39:36.817Z,22.56
2023-04-11T21:41:38.119Z,22.61
2023-04-11T21:43:39.464Z,22.32
2023-04-11T21:45:40.934Z,22.56
2023-04-11T21:47:42.350Z,22.81
2023-04-11T21:49:43.723Z,22.83
2023-04-11T21:51:45.033Z,23.04
2023-04-11T21:53:46.331Z,23.03
2023-04-11T21:55:47.655Z,23.00
2023-04-11T21:57:48.956Z,23.07
2023-04-11T21:59:50.311Z,23.09
2023-04-11T22:01:52.473Z,23.11
2023-04-11T22:03:54.121Z,23.15
2023-04-11T22:05:55.734Z,22.89
2023-04-11T22:07:59.079Z,22.80
2023-04-11T22:10:03.872Z,22.74
2023-04-11T22:12:05.181Z,22.72
2023-04-11T22:14:06.496Z,22.75
2023-04-11T22:16:07.865Z,22.87
2023-04-11T22:18:12.356Z,22.99
2023-04-11T22:20:13.931Z,23.32
2023-04-11T22:22:16.247Z,23.77
2023-04-11T22:24:17.537Z,23.57
2023-04-11T22:26:26.147Z,23.03
2023-04-11T22:28:27.647Z,22.81
2023-04-11T22:30:30.159Z,22.75
2023-04-11T22:32:31.667Z,22.89
2023-04-11T22:34:32.980Z,22.74
2023-04-11T22:36:37.201Z,22.66
2023-04-11T22:38:38.498Z,22.63
2023-04-11T22:40:40.265Z,22.61
2023-04-11T22:42:41.786Z,22.22
2023-04-11T22:44:43.090Z,21.88
2023-04-11T22:46:44.429Z,21.82
2023-04-11T22:48:45.759Z,21.49
2023-04-11T22:50:52.894Z,22.31
2023-04-11T22:52:54.989Z,22.27
2023-04-11T22:54:56.966Z,22.26
2023-04-11T22:56:58.271Z,22.25
2023-04-11T22:58:59.576Z,22.34
2023-04-11T23:01:02.331Z,22.83
2023-04-11T23:03:03.687Z,22.52
2023-04-11T23:05:05.067Z,22.41
2023-04-11T23:07:06.386Z,22.35
2023-04-11T23:09:07.826Z,22.14
2023-04-11T23:11:09.170Z,21.74
2023-04-11T23:13:10.478Z,21.92
2023-04-11T23:15:12.553Z,22.07
2023-04-11T23:17:13.865Z,22.14
2023-04-11T23:19:15.172Z,22.23
2023-04-11T23:21:16.464Z,22.32
2023-04-11T23:23:18.366Z,22.33
2023-04-11T23:25:19.940Z,22.35
2023-04-11T23:27:21.319Z,22.35
2023-04-11T23:29:22.902Z,22.57
2023-04-11T23:31:24.255Z,22.49
2023-04-11T23:33:25.782Z,22.41
2023-04-11T23:35:27.156Z,22.39
2023-04-11T23:37:28.441Z,22.39
2023-04-11T23:39:29.730Z,22.78
2023-04-11T23:41:31.938Z,22.83
2023-04-11T23:43:33.230Z,22.56
2023-04-11T23:45:34.547Z,22.16
2023-04-11T23:47:35.908Z,22.41
2023-04-11T23:49:37.199Z,22.59
2023-04-11T23:51:38.505Z,22.72
2023-04-11T23:53:39.910Z,22.78
2023-04-11T23:55:41.570Z,22.80
2023-04-11T23:57:43.313Z,22.77
2023-04-11T23:59:44.607Z,22.82
